sensor_id;sensor_type;location;lat;lon;timestamp;P1;durP1;ratioP1;P2;durP2;ratioP2
11807;SDS011;5961;42.640;23.380;2023-12-07T00:00:42;23.17;;;14.10;;
11807;SDS011;5961;42.640;23.380;2023-12-07T00:03:09;21.63;;;14.20;;
11807;SDS011;5961;42.640;23.380;2023-12-07T00:05:36;22.20;;;14.80;;
11807;SDS011;5961;42.640;23.380;2023-12-07T00:08:03;22.87;;;14.00;;
11807;SDS011;5961;42.640;23.380;2023-12-07T00:10:31;23.03;;;15.10;;
11807;SDS011;5961;42.640;23.380;2023-12-07T00:12:58;22.30;;;14.03;;
11807;SDS011;5961;42.640;23.380;2023-12-07T00:15:25;23.40;;;14.80;;
11807;SDS011;5961;42.640;23.380;2023-12-07T00:17:51;27.67;;;15.27;;
11807;SDS011;5961;42.640;23.380;2023-12-07T00:20:18;27.77;;;16.00;;
11807;SDS011;5961;42.640;23.380;2023-12-07T00:22:45;22.83;;;14.33;;
11807;SDS011;5961;42.640;23.380;2023-12-07T00:25:12;23.73;;;14.50;;
11807;SDS011;5961;42.640;23.380;2023-12-07T00:27:40;24.53;;;14.47;;
11807;SDS011;5961;42.640;23.380;2023-12-07T00:30:07;26.37;;;15.63;;
11807;SDS011;5961;42.640;23.380;2023-12-07T00:32:35;25.40;;;15.60;;
11807;SDS011;5961;42.640;23.380;2023-12-07T00:35:02;23.77;;;14.83;;
11807;SDS011;5961;42.640;23.380;2023-12-07T00:37:28;24.27;;;15.53;;
11807;SDS011;5961;42.640;23.380;2023-12-07T00:39:56;24.27;;;15.73;;
11807;SDS011;5961;42.640;23.380;2023-12-07T00:42:22;24.97;;;15.80;;
11807;SDS011;5961;42.640;23.380;2023-12-07T00:44:50;26.90;;;16.43;;
11807;SDS011;5961;42.640;23.380;2023-12-07T00:47:17;27.97;;;16.77;;
11807;SDS011;5961;42.640;23.380;2023-12-07T00:49:44;28.47;;;17.70;;
11807;SDS011;5961;42.640;23.380;2023-12-07T00:52:10;28.37;;;17.47;;
11807;SDS011;5961;42.640;23.380;2023-12-07T00:54:37;31.07;;;17.57;;
11807;SDS011;5961;42.640;23.380;2023-12-07T00:57:04;30.90;;;18.57;;
11807;SDS011;5961;42.640;23.380;2023-12-07T00:59:31;27.97;;;17.83;;
11807;SDS011;5961;42.640;23.380;2023-12-07T01:02:00;28.43;;;18.57;;
11807;SDS011;5961;42.640;23.380;2023-12-07T01:04:27;32.20;;;19.60;;
11807;SDS011;5961;42.640;23.380;2023-12-07T01:06:54;36.80;;;20.60;;
11807;SDS011;5961;42.640;23.380;2023-12-07T01:09:21;36.20;;;21.43;;
11807;SDS011;5961;42.640;23.380;2023-12-07T01:11:48;36.10;;;21.97;;
11807;SDS011;5961;42.640;23.380;2023-12-07T01:14:15;36.00;;;20.90;;
11807;SDS011;5961;42.640;23.380;2023-12-07T01:16:42;37.10;;;20.73;;
11807;SDS011;5961;42.640;23.380;2023-12-07T01:19:10;36.57;;;21.57;;
11807;SDS011;5961;42.640;23.380;2023-12-07T01:21:39;35.33;;;21.20;;
11807;SDS011;5961;42.640;23.380;2023-12-07T01:24:06;34.13;;;20.83;;
11807;SDS011;5961;42.640;23.380;2023-12-07T01:26:33;35.20;;;20.53;;
11807;SDS011;5961;42.640;23.380;2023-12-07T01:28:59;41.13;;;21.90;;
11807;SDS011;5961;42.640;23.380;2023-12-07T01:31:26;35.57;;;19.90;;
11807;SDS011;5961;42.640;23.380;2023-12-07T01:33:53;36.23;;;20.00;;
11807;SDS011;5961;42.640;23.380;2023-12-07T01:36:21;37.00;;;20.70;;
11807;SDS011;5961;42.640;23.380;2023-12-07T01:38:47;33.03;;;19.57;;
11807;SDS011;5961;42.640;23.380;2023-12-07T01:41:14;35.27;;;20.27;;
11807;SDS011;5961;42.640;23.380;2023-12-07T01:43:44;36.07;;;21.00;;
11807;SDS011;5961;42.640;23.380;2023-12-07T01:46:11;38.17;;;20.50;;
11807;SDS011;5961;42.640;23.380;2023-12-07T01:48:38;40.37;;;21.13;;
11807;SDS011;5961;42.640;23.380;2023-12-07T01:51:05;35.07;;;20.57;;
11807;SDS011;5961;42.640;23.380;2023-12-07T01:53:34;34.80;;;19.90;;
11807;SDS011;5961;42.640;23.380;2023-12-07T01:56:00;33.73;;;20.03;;
11807;SDS011;5961;42.640;23.380;2023-12-07T01:58:27;33.40;;;20.07;;
11807;SDS011;5961;42.640;23.380;2023-12-07T02:00:54;36.27;;;20.43;;
11807;SDS011;5961;42.640;23.380;2023-12-07T02:03:21;34.40;;;20.20;;
11807;SDS011;5961;42.640;23.380;2023-12-07T02:05:50;37.50;;;20.77;;
11807;SDS011;5961;42.640;23.380;2023-12-07T02:08:17;33.87;;;19.83;;
11807;SDS011;5961;42.640;23.380;2023-12-07T02:10:45;31.97;;;19.70;;
11807;SDS011;5961;42.640;23.380;2023-12-07T02:13:12;33.80;;;18.67;;
11807;SDS011;5961;42.640;23.380;2023-12-07T02:15:39;34.67;;;19.67;;
11807;SDS011;5961;42.640;23.380;2023-12-07T02:18:06;32.97;;;19.57;;
11807;SDS011;5961;42.640;23.380;2023-12-07T02:20:41;34.77;;;20.07;;
11807;SDS011;5961;42.640;23.380;2023-12-07T02:23:13;37.50;;;21.13;;
11807;SDS011;5961;42.640;23.380;2023-12-07T02:29:01;33.20;;;19.47;;
11807;SDS011;5961;42.640;23.380;2023-12-07T02:31:27;33.57;;;20.37;;
11807;SDS011;5961;42.640;23.380;2023-12-07T02:33:55;35.00;;;19.77;;
11807;SDS011;5961;42.640;23.380;2023-12-07T02:36:22;33.93;;;20.00;;
11807;SDS011;5961;42.640;23.380;2023-12-07T02:38:53;32.37;;;19.43;;
11807;SDS011;5961;42.640;23.380;2023-12-07T02:41:24;30.10;;;18.57;;
11807;SDS011;5961;42.640;23.380;2023-12-07T02:43:52;33.17;;;20.13;;
11807;SDS011;5961;42.640;23.380;2023-12-07T02:46:21;35.13;;;19.50;;
11807;SDS011;5961;42.640;23.380;2023-12-07T02:48:47;33.23;;;19.97;;
11807;SDS011;5961;42.640;23.380;2023-12-07T02:51:14;32.97;;;19.27;;
11807;SDS011;5961;42.640;23.380;2023-12-07T02:53:41;32.90;;;20.00;;
11807;SDS011;5961;42.640;23.380;2023-12-07T02:56:07;33.57;;;19.07;;
11807;SDS011;5961;42.640;23.380;2023-12-07T02:58:34;32.87;;;18.60;;
11807;SDS011;5961;42.640;23.380;2023-12-07T03:01:01;33.00;;;19.63;;
11807;SDS011;5961;42.640;23.380;2023-12-07T03:03:29;33.37;;;20.40;;
11807;SDS011;5961;42.640;23.380;2023-12-07T03:05:56;32.83;;;20.33;;
11807;SDS011;5961;42.640;23.380;2023-12-07T03:08:22;34.60;;;20.07;;
11807;SDS011;5961;42.640;23.380;2023-12-07T03:10:49;31.57;;;18.43;;
11807;SDS011;5961;42.640;23.380;2023-12-07T03:13:16;34.77;;;20.20;;
11807;SDS011;5961;42.640;23.380;2023-12-07T03:15:42;32.80;;;19.03;;
11807;SDS011;5961;42.640;23.380;2023-12-07T03:18:09;33.00;;;20.30;;
11807;SDS011;5961;42.640;23.380;2023-12-07T03:20:37;34.47;;;19.20;;
11807;SDS011;5961;42.640;23.380;2023-12-07T03:23:04;33.30;;;18.93;;
11807;SDS011;5961;42.640;23.380;2023-12-07T03:25:30;32.43;;;19.63;;
11807;SDS011;5961;42.640;23.380;2023-12-07T03:27:57;36.17;;;20.03;;
11807;SDS011;5961;42.640;23.380;2023-12-07T03:30:24;34.43;;;19.37;;
11807;SDS011;5961;42.640;23.380;2023-12-07T03:32:50;38.33;;;20.77;;
11807;SDS011;5961;42.640;23.380;2023-12-07T03:35:17;33.13;;;19.20;;
11807;SDS011;5961;42.640;23.380;2023-12-07T03:37:45;36.17;;;20.70;;
11807;SDS011;5961;42.640;23.380;2023-12-07T03:40:12;32.23;;;19.77;;
11807;SDS011;5961;42.640;23.380;2023-12-07T03:42:39;32.40;;;19.07;;
11807;SDS011;5961;42.640;23.380;2023-12-07T03:45:06;35.10;;;19.77;;
11807;SDS011;5961;42.640;23.380;2023-12-07T03:47:33;33.93;;;18.67;;
11807;SDS011;5961;42.640;23.380;2023-12-07T03:50:00;32.77;;;18.93;;
11807;SDS011;5961;42.640;23.380;2023-12-07T03:52:26;33.87;;;18.53;;
11807;SDS011;5961;42.640;23.380;2023-12-07T03:54:54;32.47;;;18.50;;
11807;SDS011;5961;42.640;23.380;2023-12-07T03:57:21;33.23;;;19.00;;
11807;SDS011;5961;42.640;23.380;2023-12-07T03:59:48;30.90;;;18.13;;
11807;SDS011;5961;42.640;23.380;2023-12-07T04:02:14;30.30;;;18.03;;
11807;SDS011;5961;42.640;23.380;2023-12-07T04:04:41;32.07;;;19.90;;
11807;SDS011;5961;42.640;23.380;2023-12-07T04:07:08;32.00;;;19.27;;
11807;SDS011;5961;42.640;23.380;2023-12-07T04:09:35;30.53;;;18.63;;
11807;SDS011;5961;42.640;23.380;2023-12-07T04:12:03;34.60;;;18.53;;
11807;SDS011;5961;42.640;23.380;2023-12-07T04:14:30;33.10;;;19.67;;
11807;SDS011;5961;42.640;23.380;2023-12-07T04:16:57;35.13;;;19.00;;
11807;SDS011;5961;42.640;23.380;2023-12-07T04:19:23;31.97;;;18.63;;
11807;SDS011;5961;42.640;23.380;2023-12-07T04:21:50;32.67;;;18.40;;
11807;SDS011;5961;42.640;23.380;2023-12-07T04:24:17;37.17;;;19.43;;
11807;SDS011;5961;42.640;23.380;2023-12-07T04:26:43;35.33;;;19.30;;
11807;SDS011;5961;42.640;23.380;2023-12-07T04:29:11;31.23;;;18.87;;
11807;SDS011;5961;42.640;23.380;2023-12-07T04:31:38;31.57;;;19.07;;
11807;SDS011;5961;42.640;23.380;2023-12-07T04:34:05;35.37;;;19.20;;
11807;SDS011;5961;42.640;23.380;2023-12-07T04:36:32;29.40;;;17.60;;
11807;SDS011;5961;42.640;23.380;2023-12-07T04:38:58;34.50;;;18.23;;
11807;SDS011;5961;42.640;23.380;2023-12-07T04:41:25;30.57;;;18.23;;
11807;SDS011;5961;42.640;23.380;2023-12-07T04:43:52;36.27;;;20.03;;
11807;SDS011;5961;42.640;23.380;2023-12-07T04:46:20;36.03;;;18.50;;
11807;SDS011;5961;42.640;23.380;2023-12-07T04:48:47;32.20;;;19.20;;
11807;SDS011;5961;42.640;23.380;2023-12-07T04:51:14;31.43;;;19.00;;
11807;SDS011;5961;42.640;23.380;2023-12-07T04:53:40;32.83;;;19.07;;
11807;SDS011;5961;42.640;23.380;2023-12-07T04:56:07;32.20;;;18.73;;
11807;SDS011;5961;42.640;23.380;2023-12-07T04:58:35;30.77;;;17.97;;
11807;SDS011;5961;42.640;23.380;2023-12-07T05:01:01;32.23;;;19.53;;
11807;SDS011;5961;42.640;23.380;2023-12-07T05:03:31;31.80;;;17.77;;
11807;SDS011;5961;42.640;23.380;2023-12-07T05:05:58;28.93;;;16.83;;
11807;SDS011;5961;42.640;23.380;2023-12-07T05:08:24;29.67;;;17.97;;
11807;SDS011;5961;42.640;23.380;2023-12-07T05:10:52;29.00;;;16.63;;
11807;SDS011;5961;42.640;23.380;2023-12-07T05:13:19;30.93;;;17.93;;
11807;SDS011;5961;42.640;23.380;2023-12-07T05:15:45;30.17;;;17.63;;
11807;SDS011;5961;42.640;23.380;2023-12-07T05:18:12;28.53;;;17.63;;
11807;SDS011;5961;42.640;23.380;2023-12-07T05:20:40;28.10;;;17.87;;
11807;SDS011;5961;42.640;23.380;2023-12-07T05:23:08;28.60;;;17.37;;
11807;SDS011;5961;42.640;23.380;2023-12-07T05:25:34;26.43;;;17.00;;
11807;SDS011;5961;42.640;23.380;2023-12-07T05:28:01;25.60;;;15.90;;
11807;SDS011;5961;42.640;23.380;2023-12-07T05:30:28;29.50;;;16.73;;
11807;SDS011;5961;42.640;23.380;2023-12-07T05:32:55;27.37;;;16.93;;
11807;SDS011;5961;42.640;23.380;2023-12-07T05:35:22;25.57;;;16.77;;
11807;SDS011;5961;42.640;23.380;2023-12-07T05:37:51;24.27;;;16.27;;
11807;SDS011;5961;42.640;23.380;2023-12-07T05:40:17;25.30;;;15.87;;
11807;SDS011;5961;42.640;23.380;2023-12-07T05:42:45;24.93;;;15.07;;
11807;SDS011;5961;42.640;23.380;2023-12-07T05:45:13;22.50;;;14.53;;
11807;SDS011;5961;42.640;23.380;2023-12-07T05:47:41;22.73;;;14.23;;
11807;SDS011;5961;42.640;23.380;2023-12-07T05:50:07;25.63;;;15.33;;
11807;SDS011;5961;42.640;23.380;2023-12-07T05:52:34;28.07;;;16.30;;
11807;SDS011;5961;42.640;23.380;2023-12-07T05:55:03;30.37;;;17.53;;
11807;SDS011;5961;42.640;23.380;2023-12-07T05:57:30;28.23;;;16.93;;
11807;SDS011;5961;42.640;23.380;2023-12-07T05:59:57;27.17;;;16.67;;
11807;SDS011;5961;42.640;23.380;2023-12-07T06:02:24;25.37;;;15.93;;
11807;SDS011;5961;42.640;23.380;2023-12-07T06:04:51;25.13;;;15.70;;
11807;SDS011;5961;42.640;23.380;2023-12-07T06:07:18;24.37;;;16.00;;
11807;SDS011;5961;42.640;23.380;2023-12-07T06:09:44;27.47;;;17.90;;
11807;SDS011;5961;42.640;23.380;2023-12-07T06:12:12;26.70;;;16.10;;
11807;SDS011;5961;42.640;23.380;2023-12-07T06:14:39;26.00;;;16.27;;
11807;SDS011;5961;42.640;23.380;2023-12-07T06:17:06;22.87;;;15.57;;
11807;SDS011;5961;42.640;23.380;2023-12-07T06:19:33;24.30;;;15.47;;
11807;SDS011;5961;42.640;23.380;2023-12-07T06:21:59;26.53;;;15.97;;
11807;SDS011;5961;42.640;23.380;2023-12-07T06:24:26;27.47;;;16.57;;
11807;SDS011;5961;42.640;23.380;2023-12-07T06:26:53;26.10;;;16.33;;
11807;SDS011;5961;42.640;23.380;2023-12-07T06:29:21;26.27;;;16.40;;
11807;SDS011;5961;42.640;23.380;2023-12-07T06:31:48;26.70;;;15.53;;
11807;SDS011;5961;42.640;23.380;2023-12-07T06:34:14;23.57;;;14.50;;
11807;SDS011;5961;42.640;23.380;2023-12-07T06:36:41;28.50;;;16.37;;
11807;SDS011;5961;42.640;23.380;2023-12-07T06:39:09;24.33;;;15.90;;
11807;SDS011;5961;42.640;23.380;2023-12-07T06:41:35;26.33;;;15.30;;
11807;SDS011;5961;42.640;23.380;2023-12-07T06:44:02;28.53;;;16.37;;
11807;SDS011;5961;42.640;23.380;2023-12-07T06:46:30;28.50;;;16.77;;
11807;SDS011;5961;42.640;23.380;2023-12-07T06:48:57;25.83;;;16.07;;
11807;SDS011;5961;42.640;23.380;2023-12-07T06:51:23;26.20;;;16.70;;
11807;SDS011;5961;42.640;23.380;2023-12-07T06:53:50;30.93;;;17.83;;
11807;SDS011;5961;42.640;23.380;2023-12-07T06:56:18;25.60;;;16.33;;
11807;SDS011;5961;42.640;23.380;2023-12-07T06:58:45;24.77;;;15.73;;
11807;SDS011;5961;42.640;23.380;2023-12-07T07:01:11;27.90;;;15.77;;
11807;SDS011;5961;42.640;23.380;2023-12-07T07:03:41;28.53;;;14.73;;
11807;SDS011;5961;42.640;23.380;2023-12-07T07:06:07;22.73;;;14.23;;
11807;SDS011;5961;42.640;23.380;2023-12-07T07:08:34;22.77;;;14.23;;
11807;SDS011;5961;42.640;23.380;2023-12-07T07:11:01;23.00;;;14.70;;
11807;SDS011;5961;42.640;23.380;2023-12-07T07:13:28;22.53;;;13.87;;
11807;SDS011;5961;42.640;23.380;2023-12-07T07:15:55;21.60;;;12.83;;
11807;SDS011;5961;42.640;23.380;2023-12-07T07:18:22;18.90;;;12.23;;
11807;SDS011;5961;42.640;23.380;2023-12-07T07:20:51;18.20;;;11.73;;
11807;SDS011;5961;42.640;23.380;2023-12-07T07:23:18;21.57;;;12.23;;
11807;SDS011;5961;42.640;23.380;2023-12-07T07:25:45;21.77;;;11.67;;
11807;SDS011;5961;42.640;23.380;2023-12-07T07:28:11;19.70;;;12.00;;
11807;SDS011;5961;42.640;23.380;2023-12-07T07:30:38;17.17;;;10.80;;
11807;SDS011;5961;42.640;23.380;2023-12-07T07:33:05;18.73;;;10.63;;
11807;SDS011;5961;42.640;23.380;2023-12-07T07:35:32;19.23;;;11.07;;
11807;SDS011;5961;42.640;23.380;2023-12-07T07:38:00;18.63;;;11.43;;
11807;SDS011;5961;42.640;23.380;2023-12-07T07:40:27;19.40;;;11.10;;
11807;SDS011;5961;42.640;23.380;2023-12-07T07:42:54;18.63;;;10.67;;
11807;SDS011;5961;42.640;23.380;2023-12-07T07:45:20;20.67;;;11.00;;
11807;SDS011;5961;42.640;23.380;2023-12-07T07:47:47;19.67;;;10.80;;
11807;SDS011;5961;42.640;23.380;2023-12-07T07:50:14;19.53;;;11.20;;
11807;SDS011;5961;42.640;23.380;2023-12-07T07:52:41;15.90;;;11.10;;
11807;SDS011;5961;42.640;23.380;2023-12-07T07:55:09;20.13;;;11.93;;
11807;SDS011;5961;42.640;23.380;2023-12-07T07:57:36;19.00;;;12.50;;
11807;SDS011;5961;42.640;23.380;2023-12-07T08:00:04;17.53;;;11.63;;
11807;SDS011;5961;42.640;23.380;2023-12-07T08:02:33;18.17;;;11.53;;
11807;SDS011;5961;42.640;23.380;2023-12-07T08:05:00;19.50;;;11.90;;
11807;SDS011;5961;42.640;23.380;2023-12-07T08:07:26;19.97;;;12.70;;
11807;SDS011;5961;42.640;23.380;2023-12-07T08:09:53;18.07;;;12.07;;
11807;SDS011;5961;42.640;23.380;2023-12-07T08:12:21;20.20;;;12.53;;
11807;SDS011;5961;42.640;23.380;2023-12-07T08:14:48;19.10;;;12.07;;
11807;SDS011;5961;42.640;23.380;2023-12-07T08:17:15;19.93;;;11.77;;
11807;SDS011;5961;42.640;23.380;2023-12-07T08:19:44;20.50;;;10.70;;
11807;SDS011;5961;42.640;23.380;2023-12-07T08:22:11;13.37;;;8.90;;
11807;SDS011;5961;42.640;23.380;2023-12-07T08:24:38;10.57;;;7.63;;
11807;SDS011;5961;42.640;23.380;2023-12-07T08:27:05;11.07;;;7.87;;
11807;SDS011;5961;42.640;23.380;2023-12-07T08:29:33;13.03;;;6.87;;
11807;SDS011;5961;42.640;23.380;2023-12-07T08:32:01;10.73;;;6.83;;
11807;SDS011;5961;42.640;23.380;2023-12-07T08:34:28;10.60;;;7.03;;
11807;SDS011;5961;42.640;23.380;2023-12-07T08:36:55;12.73;;;7.13;;
11807;SDS011;5961;42.640;23.380;2023-12-07T08:39:22;11.80;;;7.87;;
11807;SDS011;5961;42.640;23.380;2023-12-07T08:41:50;10.47;;;7.53;;
11807;SDS011;5961;42.640;23.380;2023-12-07T08:44:17;10.47;;;7.30;;
11807;SDS011;5961;42.640;23.380;2023-12-07T08:46:45;9.10;;;6.97;;
11807;SDS011;5961;42.640;23.380;2023-12-07T08:49:12;9.30;;;6.60;;
11807;SDS011;5961;42.640;23.380;2023-12-07T08:51:38;9.97;;;6.37;;
11807;SDS011;5961;42.640;23.380;2023-12-07T08:54:05;8.63;;;6.60;;
11807;SDS011;5961;42.640;23.380;2023-12-07T08:56:32;9.30;;;6.97;;
11807;SDS011;5961;42.640;23.380;2023-12-07T08:58:58;8.80;;;6.23;;
11807;SDS011;5961;42.640;23.380;2023-12-07T09:01:25;9.43;;;5.80;;
11807;SDS011;5961;42.640;23.380;2023-12-07T09:03:54;7.10;;;5.47;;
11807;SDS011;5961;42.640;23.380;2023-12-07T09:06:20;8.23;;;5.37;;
11807;SDS011;5961;42.640;23.380;2023-12-07T09:08:47;7.30;;;5.40;;
11807;SDS011;5961;42.640;23.380;2023-12-07T09:11:14;7.70;;;5.30;;
11807;SDS011;5961;42.640;23.380;2023-12-07T09:13:41;5.73;;;4.53;;
11807;SDS011;5961;42.640;23.380;2023-12-07T09:16:07;6.60;;;4.57;;
11807;SDS011;5961;42.640;23.380;2023-12-07T09:18:34;7.13;;;4.30;;
11807;SDS011;5961;42.640;23.380;2023-12-07T09:21:03;5.93;;;4.00;;
11807;SDS011;5961;42.640;23.380;2023-12-07T09:23:30;4.33;;;3.70;;
11807;SDS011;5961;42.640;23.380;2023-12-07T09:25:57;4.17;;;3.17;;
11807;SDS011;5961;42.640;23.380;2023-12-07T09:28:24;4.27;;;3.23;;
11807;SDS011;5961;42.640;23.380;2023-12-07T09:30:50;3.47;;;3.03;;
11807;SDS011;5961;42.640;23.380;2023-12-07T09:33:17;3.53;;;3.00;;
11807;SDS011;5961;42.640;23.380;2023-12-07T09:35:44;2.97;;;2.67;;
11807;SDS011;5961;42.640;23.380;2023-12-07T09:38:12;3.67;;;3.07;;
11807;SDS011;5961;42.640;23.380;2023-12-07T09:40:38;4.77;;;2.97;;
11807;SDS011;5961;42.640;23.380;2023-12-07T09:43:05;3.33;;;2.70;;
11807;SDS011;5961;42.640;23.380;2023-12-07T09:45:32;3.20;;;2.17;;
11807;SDS011;5961;42.640;23.380;2023-12-07T09:47:59;2.30;;;2.10;;
11807;SDS011;5961;42.640;23.380;2023-12-07T09:50:27;2.00;;;1.80;;
11807;SDS011;5961;42.640;23.380;2023-12-07T09:52:54;2.47;;;2.20;;
11807;SDS011;5961;42.640;23.380;2023-12-07T09:55:25;2.93;;;2.10;;
11807;SDS011;5961;42.640;23.380;2023-12-07T09:57:51;1.80;;;1.70;;
11807;SDS011;5961;42.640;23.380;2023-12-07T10:00:21;2.40;;;2.10;;
11807;SDS011;5961;42.640;23.380;2023-12-07T10:02:48;2.37;;;2.17;;
11807;SDS011;5961;42.640;23.380;2023-12-07T10:05:15;3.00;;;1.90;;
11807;SDS011;5961;42.640;23.380;2023-12-07T10:07:42;2.97;;;1.90;;
11807;SDS011;5961;42.640;23.380;2023-12-07T10:10:11;2.63;;;1.90;;
11807;SDS011;5961;42.640;23.380;2023-12-07T10:12:45;3.37;;;1.80;;
11807;SDS011;5961;42.640;23.380;2023-12-07T10:15:13;2.73;;;2.00;;
11807;SDS011;5961;42.640;23.380;2023-12-07T10:17:45;1.63;;;1.53;;
11807;SDS011;5961;42.640;23.380;2023-12-07T10:20:13;2.07;;;1.80;;
11807;SDS011;5961;42.640;23.380;2023-12-07T10:22:41;1.80;;;1.70;;
11807;SDS011;5961;42.640;23.380;2023-12-07T10:25:09;1.83;;;1.67;;
11807;SDS011;5961;42.640;23.380;2023-12-07T10:27:37;2.20;;;1.70;;
11807;SDS011;5961;42.640;23.380;2023-12-07T10:30:07;1.90;;;1.70;;
11807;SDS011;5961;42.640;23.380;2023-12-07T10:32:36;1.53;;;1.40;;
11807;SDS011;5961;42.640;23.380;2023-12-07T10:35:05;3.23;;;1.43;;
11807;SDS011;5961;42.640;23.380;2023-12-07T10:37:34;1.30;;;1.20;;
11807;SDS011;5961;42.640;23.380;2023-12-07T10:40:01;2.77;;;1.67;;
11807;SDS011;5961;42.640;23.380;2023-12-07T10:42:32;1.50;;;1.40;;
11807;SDS011;5961;42.640;23.380;2023-12-07T10:45:02;3.50;;;2.20;;
11807;SDS011;5961;42.640;23.380;2023-12-07T10:47:33;2.60;;;1.80;;
11807;SDS011;5961;42.640;23.380;2023-12-07T10:50:02;2.07;;;1.50;;
11807;SDS011;5961;42.640;23.380;2023-12-07T10:52:36;2.37;;;1.80;;
11807;SDS011;5961;42.640;23.380;2023-12-07T10:55:06;1.80;;;1.60;;
11807;SDS011;5961;42.640;23.380;2023-12-07T10:57:36;1.67;;;1.57;;
11807;SDS011;5961;42.640;23.380;2023-12-07T11:00:05;1.77;;;1.40;;
11807;SDS011;5961;42.640;23.380;2023-12-07T11:02:35;1.93;;;1.53;;
11807;SDS011;5961;42.640;23.380;2023-12-07T11:05:04;2.30;;;1.47;;
11807;SDS011;5961;42.640;23.380;2023-12-07T11:07:33;2.37;;;1.80;;
11807;SDS011;5961;42.640;23.380;2023-12-07T11:10:11;1.67;;;1.57;;
11807;SDS011;5961;42.640;23.380;2023-12-07T11:12:43;1.70;;;1.60;;
11807;SDS011;5961;42.640;23.380;2023-12-07T11:15:14;2.07;;;1.80;;
11807;SDS011;5961;42.640;23.380;2023-12-07T11:17:52;1.73;;;1.60;;
11807;SDS011;5961;42.640;23.380;2023-12-07T11:20:21;2.70;;;1.50;;
11807;SDS011;5961;42.640;23.380;2023-12-07T11:22:57;2.10;;;1.87;;
11807;SDS011;5961;42.640;23.380;2023-12-07T11:25:25;1.93;;;1.63;;
11807;SDS011;5961;42.640;23.380;2023-12-07T11:27:59;2.13;;;1.70;;
11807;SDS011;5961;42.640;23.380;2023-12-07T11:30:26;1.70;;;1.60;;
11807;SDS011;5961;42.640;23.380;2023-12-07T11:32:54;1.53;;;1.43;;
11807;SDS011;5961;42.640;23.380;2023-12-07T11:35:21;1.73;;;1.63;;
11807;SDS011;5961;42.640;23.380;2023-12-07T11:38:00;1.60;;;1.43;;
11807;SDS011;5961;42.640;23.380;2023-12-07T11:40:35;2.27;;;1.80;;
11807;SDS011;5961;42.640;23.380;2023-12-07T11:43:02;6.17;;;2.43;;
11807;SDS011;5961;42.640;23.380;2023-12-07T11:45:36;2.77;;;1.83;;
11807;SDS011;5961;42.640;23.380;2023-12-07T11:48:11;2.53;;;1.60;;
11807;SDS011;5961;42.640;23.380;2023-12-07T11:50:53;2.87;;;2.07;;
11807;SDS011;5961;42.640;23.380;2023-12-07T11:53:22;1.60;;;1.50;;
11807;SDS011;5961;42.640;23.380;2023-12-07T11:55:50;2.10;;;1.47;;
11807;SDS011;5961;42.640;23.380;2023-12-07T11:58:17;2.03;;;1.53;;
11807;SDS011;5961;42.640;23.380;2023-12-07T12:00:43;1.50;;;1.40;;
11807;SDS011;5961;42.640;23.380;2023-12-07T12:03:13;2.77;;;1.80;;
11807;SDS011;5961;42.640;23.380;2023-12-07T12:05:40;1.43;;;1.30;;
11807;SDS011;5961;42.640;23.380;2023-12-07T12:08:08;1.50;;;1.40;;
11807;SDS011;5961;42.640;23.380;2023-12-07T12:10:35;1.47;;;1.37;;
11807;SDS011;5961;42.640;23.380;2023-12-07T12:13:02;2.00;;;1.70;;
11807;SDS011;5961;42.640;23.380;2023-12-07T12:15:29;1.97;;;1.70;;
11807;SDS011;5961;42.640;23.380;2023-12-07T12:17:56;2.33;;;1.70;;
11807;SDS011;5961;42.640;23.380;2023-12-07T12:20:25;1.73;;;1.63;;
11807;SDS011;5961;42.640;23.380;2023-12-07T12:22:52;1.83;;;1.60;;
11807;SDS011;5961;42.640;23.380;2023-12-07T12:25:19;1.80;;;1.70;;
11807;SDS011;5961;42.640;23.380;2023-12-07T12:27:47;1.97;;;1.60;;
11807;SDS011;5961;42.640;23.380;2023-12-07T12:30:15;1.80;;;1.60;;
11807;SDS011;5961;42.640;23.380;2023-12-07T12:32:43;2.80;;;1.80;;
11807;SDS011;5961;42.640;23.380;2023-12-07T12:35:11;2.00;;;1.80;;
11807;SDS011;5961;42.640;23.380;2023-12-07T12:37:41;2.10;;;1.90;;
11807;SDS011;5961;42.640;23.380;2023-12-07T12:40:08;2.20;;;2.00;;
11807;SDS011;5961;42.640;23.380;2023-12-07T12:42:36;3.93;;;2.30;;
11807;SDS011;5961;42.640;23.380;2023-12-07T12:45:04;1.90;;;1.70;;
11807;SDS011;5961;42.640;23.380;2023-12-07T12:47:32;2.60;;;2.00;;
11807;SDS011;5961;42.640;23.380;2023-12-07T12:49:59;2.00;;;1.80;;
11807;SDS011;5961;42.640;23.380;2023-12-07T12:52:29;1.80;;;1.70;;
11807;SDS011;5961;42.640;23.380;2023-12-07T12:54:57;1.87;;;1.77;;
11807;SDS011;5961;42.640;23.380;2023-12-07T12:57:24;2.17;;;1.97;;
11807;SDS011;5961;42.640;23.380;2023-12-07T12:59:51;2.93;;;2.10;;
11807;SDS011;5961;42.640;23.380;2023-12-07T13:02:18;2.97;;;1.97;;
11807;SDS011;5961;42.640;23.380;2023-12-07T13:04:45;2.30;;;2.10;;
11807;SDS011;5961;42.640;23.380;2023-12-07T13:07:12;2.93;;;2.47;;
11807;SDS011;5961;42.640;23.380;2023-12-07T13:09:39;2.40;;;2.20;;
11807;SDS011;5961;42.640;23.380;2023-12-07T13:12:10;3.40;;;2.50;;
11807;SDS011;5961;42.640;23.380;2023-12-07T13:14:36;3.53;;;2.93;;
11807;SDS011;5961;42.640;23.380;2023-12-07T13:17:05;2.60;;;2.40;;
11807;SDS011;5961;42.640;23.380;2023-12-07T13:19:32;4.23;;;2.80;;
11807;SDS011;5961;42.640;23.380;2023-12-07T13:21:59;2.90;;;2.60;;
11807;SDS011;5961;42.640;23.380;2023-12-07T13:24:26;3.60;;;2.90;;
11807;SDS011;5961;42.640;23.380;2023-12-07T13:26:53;4.33;;;3.10;;
11807;SDS011;5961;42.640;23.380;2023-12-07T13:29:21;3.40;;;2.87;;
11807;SDS011;5961;42.640;23.380;2023-12-07T13:31:48;3.40;;;2.90;;
11807;SDS011;5961;42.640;23.380;2023-12-07T13:34:15;3.10;;;2.57;;
11807;SDS011;5961;42.640;23.380;2023-12-07T13:36:42;3.27;;;2.50;;
11807;SDS011;5961;42.640;23.380;2023-12-07T13:39:08;3.13;;;2.73;;
11807;SDS011;5961;42.640;23.380;2023-12-07T13:41:38;4.87;;;3.30;;
11807;SDS011;5961;42.640;23.380;2023-12-07T13:44:04;3.53;;;2.90;;
11807;SDS011;5961;42.640;23.380;2023-12-07T13:46:33;3.60;;;3.10;;
11807;SDS011;5961;42.640;23.380;2023-12-07T13:49:02;3.93;;;2.80;;
11807;SDS011;5961;42.640;23.380;2023-12-07T13:51:29;3.27;;;2.90;;
11807;SDS011;5961;42.640;23.380;2023-12-07T13:53:56;3.70;;;3.30;;
11807;SDS011;5961;42.640;23.380;2023-12-07T13:56:22;6.20;;;3.47;;
11807;SDS011;5961;42.640;23.380;2023-12-07T13:58:49;3.13;;;2.83;;
11807;SDS011;5961;42.640;23.380;2023-12-07T14:01:16;4.93;;;3.20;;
11807;SDS011;5961;42.640;23.380;2023-12-07T14:03:44;5.17;;;3.37;;
11807;SDS011;5961;42.640;23.380;2023-12-07T14:06:11;4.07;;;3.30;;
11807;SDS011;5961;42.640;23.380;2023-12-07T14:08:39;3.80;;;3.20;;
11807;SDS011;5961;42.640;23.380;2023-12-07T14:11:05;4.23;;;3.47;;
11807;SDS011;5961;42.640;23.380;2023-12-07T14:13:32;3.43;;;3.10;;
11807;SDS011;5961;42.640;23.380;2023-12-07T14:15:59;4.17;;;3.50;;
11807;SDS011;5961;42.640;23.380;2023-12-07T14:18:25;5.53;;;3.80;;
11807;SDS011;5961;42.640;23.380;2023-12-07T14:20:53;4.47;;;3.73;;
11807;SDS011;5961;42.640;23.380;2023-12-07T14:23:21;4.77;;;3.70;;
11807;SDS011;5961;42.640;23.380;2023-12-07T14:25:48;5.27;;;4.00;;
11807;SDS011;5961;42.640;23.380;2023-12-07T14:28:16;7.73;;;4.27;;
11807;SDS011;5961;42.640;23.380;2023-12-07T14:30:43;8.67;;;4.17;;
11807;SDS011;5961;42.640;23.380;2023-12-07T14:33:10;3.87;;;3.47;;
11807;SDS011;5961;42.640;23.380;2023-12-07T14:35:37;3.80;;;3.27;;
11807;SDS011;5961;42.640;23.380;2023-12-07T14:38:05;4.53;;;3.63;;